Tampa, Florida
Traffic Map
Current Weather Conditions
Tampa, Florida
Clear
Clear
18°
Feels Like: 18°
Wind Chill: 18° Ceiling: Unl
Heat Index: 18° Visibility: 10mi
Dew Point: 11° Wind: 6mph
Humidity: 63% Direction: 320° (NW)
Pressure: 29.93in Gusts: 0mph
Raw Report DataKTPA 010153Z 32005KT 10SM CLR 18/11 A2993 RMK AO2 SLP135 T01780106
Traffic Incident Summary
Active as of:
Severity:
Category:
InformationThere was an issue retrieving the traffic information for this location. Please try a different location or try again shortly.
Advertisements
Track Severe Weather on mobile